Time;durP1;ratioP1;P1;durP2;ratioP2;P2;SDS_P1;SDS_P2;PMS_P1;PMS_P2;Temp;Humidity;BMP_temperature;BMP_pressure;BME280_temperature;BME280_humidity;BME280_pressure;Samples;Min_cycle;Max_cycle;Signal;HPM_P1;HPM_P2
2023/08/23 03:09:12;;;;;;;3.75;0.98;;;16.00;85.10;;;;;;6276447;22;20101;-72
2023/08/23 03:11:39;;;;;;;2.50;1.00;;;15.90;86.20;;;;;;6275836;22;20015;-73
2023/08/23 03:14:07;;;;;;;3.53;1.10;;;15.80;86.30;;;;;;6276709;22;20004;-72
2023/08/23 03:16:34;;;;;;;2.30;1.10;;;15.80;86.00;;;;;;6276650;22;20008;-72
2023/08/23 03:19:01;;;;;;;2.13;1.02;;;15.80;87.10;;;;;;6274744;22;20061;-72
2023/08/23 03:21:28;;;;;;;3.65;0.88;;;15.70;86.30;;;;;;6276563;22;20488;-73
2023/08/23 03:23:55;;;;;;;1.55;0.82;;;15.70;85.80;;;;;;6276872;22;20004;-72
2023/08/23 03:26:22;;;;;;;2.35;1.00;;;15.70;84.70;;;;;;6277181;22;20003;-72
2023/08/23 03:28:51;;;;;;;1.60;0.90;;;15.70;85.20;;;;;;6249409;22;20000;-72
2023/08/23 03:31:18;;;;;;;3.03;1.08;;;15.70;84.70;;;;;;6250361;22;20004;-73
2023/08/23 03:33:45;;;;;;;2.25;0.90;;;15.80;84.30;;;;;;6276665;22;20504;-72
2023/08/23 03:36:12;;;;;;;3.00;1.00;;;15.80;84.60;;;;;;6249765;22;20003;-73
2023/08/23 03:38:40;;;;;;;3.20;1.20;;;15.90;83.60;;;;;;6274899;22;20015;-73
2023/08/23 03:41:13;;;;;;;5.15;1.40;;;15.90;83.30;;;;;;6249356;22;20007;-73
2023/08/23 03:43:40;;;;;;;4.63;1.20;;;15.90;83.10;;;;;;6249990;22;20010;-73
2023/08/23 03:46:07;;;;;;;2.85;0.93;;;15.90;83.40;;;;;;6276601;22;20071;-73
2023/08/23 03:48:34;;;;;;;8.25;1.67;;;16.00;83.10;;;;;;6249576;22;20031;-73
2023/08/23 03:51:02;;;;;;;3.75;1.30;;;16.10;82.90;;;;;;6249445;22;20007;-73
2023/08/23 03:53:29;;;;;;;4.25;1.40;;;16.10;82.10;;;;;;6274872;22;20312;-73
2023/08/23 03:55:58;;;;;;;3.03;1.30;;;16.20;82.20;;;;;;6276417;22;20000;-73
2023/08/23 03:58:25;;;;;;;3.38;1.08;;;16.20;81.00;;;;;;6276353;22;20004;-73
2023/08/23 04:00:55;;;;;;;2.72;1.23;;;16.20;80.70;;;;;;6276609;22;20508;-73
2023/08/23 04:03:22;;;;;;;2.83;1.00;;;16.20;80.70;;;;;;6274599;22;20004;-73
2023/08/23 04:05:50;;;;;;;7.00;1.50;;;16.20;80.20;;;;;;6276679;22;20003;-73
2023/08/23 04:08:17;;;;;;;5.78;1.30;;;16.20;79.30;;;;;;6296043;22;20073;-73
2023/08/23 04:10:50;;;;;;;3.30;1.50;;;16.20;78.60;;;;;;6280461;22;20343;-73
2023/08/23 04:13:18;;;;;;;8.80;1.67;;;16.20;79.20;;;;;;6280311;22;20006;-73
2023/08/23 04:15:45;;;;;;;5.20;1.50;;;16.30;78.80;;;;;;6307198;22;20426;-72
2023/08/23 04:18:12;;;;;;;6.35;2.10;;;16.30;77.70;;;;;;6307433;22;20007;-73
2023/08/23 04:20:40;;;;;;;5.38;1.55;;;16.40;78.30;;;;;;6280435;22;20010;-73
2023/08/23 04:23:08;;;;;;;5.30;1.67;;;16.40;78.40;;;;;;6279924;22;20004;-73
2023/08/23 04:25:35;;;;;;;5.85;1.75;;;16.30;77.90;;;;;;6279903;22;20014;-73
2023/08/23 04:28:03;;;;;;;12.73;2.17;;;16.30;78.40;;;;;;6307073;22;19995;-72
2023/08/23 04:30:30;;;;;;;3.40;1.20;;;16.30;78.20;;;;;;6254893;22;19999;-73
2023/08/23 04:32:57;;;;;;;5.32;1.08;;;16.30;78.10;;;;;;6254540;22;20007;-73
2023/08/23 04:35:24;;;;;;;8.30;1.83;;;16.20;77.70;;;;;;6279565;22;20007;-73
2023/08/23 04:37:52;;;;;;;6.72;1.80;;;16.10;78.50;;;;;;6280006;22;20425;-73
2023/08/23 04:40:19;;;;;;;6.95;2.05;;;16.10;78.90;;;;;;6306863;22;20018;-73
2023/08/23 04:42:46;;;;;;;8.77;2.55;;;16.10;78.10;;;;;;6306906;22;20005;-72
2023/08/23 04:45:13;;;;;;;5.97;2.60;;;16.20;78.80;;;;;;6307009;22;19999;-73
2023/08/23 04:47:41;;;;;;;14.77;3.50;;;16.20;78.50;;;;;;6306779;22;20074;-72
2023/08/23 04:50:08;;;;;;;10.90;2.03;;;16.20;78.90;;;;;;6306830;22;20303;-73
2023/08/23 04:52:35;;;;;;;9.18;2.08;;;16.20;77.30;;;;;;6280098;22;20003;-72
2023/08/23 04:55:03;;;;;;;13.65;2.15;;;16.20;80.20;;;;;;6306768;22;20022;-73
2023/08/23 04:57:30;;;;;;;15.73;2.20;;;16.00;83.60;;;;;;6306906;22;20453;-72
2023/08/23 04:59:58;;;;;;;9.77;2.25;;;15.80;85.70;;;;;;6306887;22;20019;-72
2023/08/23 05:02:25;;;;;;;9.77;2.08;;;15.60;85.80;;;;;;6279481;22;20006;-73
2023/08/23 05:04:52;;;;;;;11.43;1.98;;;15.50;86.90;;;;;;6306718;22;20003;-73
2023/08/23 05:07:19;;;;;;;11.32;2.25;;;15.50;86.50;;;;;;6306769;22;20078;-72
2023/08/23 05:09:47;;;;;;;11.80;2.67;;;15.40;86.50;;;;;;6306782;22;20010;-72
2023/08/23 05:12:14;;;;;;;8.70;1.73;;;15.40;85.70;;;;;;6306622;22;19995;-74
2023/08/23 05:14:41;;;;;;;10.07;2.08;;;15.50;85.40;;;;;;6306561;22;20029;-74
2023/08/23 05:17:08;;;;;;;9.60;2.03;;;15.70;85.40;;;;;;6279723;22;20006;-73
2023/08/23 05:19:35;;;;;;;7.95;1.95;;;15.70;84.70;;;;;;6306410;22;20011;-74
2023/08/23 05:22:03;;;;;;;10.82;2.03;;;15.70;83.60;;;;;;6306198;22;20003;-74
2023/08/23 05:24:30;;;;;;;11.50;2.25;;;15.70;83.80;;;;;;6306467;22;20083;-74
2023/08/23 05:26:57;;;;;;;8.55;2.00;;;15.70;83.70;;;;;;6306889;22;20004;-74
2023/08/23 05:29:24;;;;;;;14.40;2.72;;;15.70;84.40;;;;;;6279141;22;20007;-74
2023/08/23 05:31:51;;;;;;;14.10;2.47;;;15.70;84.50;;;;;;6306885;22;19999;-74
2023/08/23 05:34:19;;;;;;;11.13;2.30;;;15.70;84.90;;;;;;6279712;22;20003;-75
2023/08/23 05:36:46;;;;;;;11.85;2.70;;;15.70;84.50;;;;;;6306427;22;19999;-74
2023/08/23 05:39:13;;;;;;;8.55;2.35;;;15.80;83.80;;;;;;6306237;22;20094;-74
2023/08/23 05:41:40;;;;;;;14.82;3.50;;;15.80;83.80;;;;;;6306312;22;20340;-75
2023/08/23 05:44:07;;;;;;;9.55;1.83;;;15.90;83.60;;;;;;6306624;22;20079;-75
2023/08/23 05:46:35;;;;;;;10.60;2.20;;;15.80;83.40;;;;;;6279718;22;19999;-73
2023/08/23 05:49:02;;;;;;;10.40;2.35;;;15.80;84.70;;;;;;6253447;22;20007;-74
2023/08/23 05:51:29;;;;;;;10.65;2.00;;;15.70;85.00;;;;;;6306309;22;20061;-75
2023/08/23 05:53:56;;;;;;;11.18;2.13;;;15.70;85.40;;;;;;6306788;22;20011;-75
2023/08/23 05:56:24;;;;;;;8.30;1.92;;;15.60;85.60;;;;;;6306514;22;19999;-74
2023/08/23 05:58:51;;;;;;;11.23;2.15;;;15.60;85.60;;;;;;6279028;22;20009;-74
2023/08/23 06:01:19;;;;;;;11.40;1.90;;;15.60;85.40;;;;;;6306227;22;20070;-74
2023/08/23 06:03:46;;;;;;;12.27;2.38;;;15.60;85.40;;;;;;6306377;22;20312;-74
2023/08/23 06:06:14;;;;;;;8.57;2.03;;;15.60;85.30;;;;;;6278756;22;20007;-74
2023/08/23 06:08:41;;;;;;;10.93;2.30;;;15.70;85.50;;;;;;6306085;22;20019;-74
2023/08/23 06:11:08;;;;;;;11.63;2.10;;;15.70;85.10;;;;;;6306372;22;20046;-74
2023/08/23 06:13:36;;;;;;;10.80;1.98;;;15.70;85.20;;;;;;6279002;22;20453;-73
2023/08/23 06:16:03;;;;;;;12.80;2.10;;;15.70;85.10;;;;;;6306428;22;20003;-74
2023/08/23 06:18:30;;;;;;;8.32;2.13;;;15.70;85.30;;;;;;6307622;22;20011;-73
2023/08/23 06:20:57;;;;;;;11.32;2.10;;;15.70;85.00;;;;;;6307842;22;20330;-74
2023/08/23 06:23:25;;;;;;;8.48;1.95;;;15.70;85.20;;;;;;6307824;22;20007;-74
2023/08/23 06:25:58;;;;;;;9.70;1.90;;;15.70;84.90;;;;;;6281423;22;19995;-74
2023/08/23 06:28:26;;;;;;;8.80;2.03;;;15.80;84.60;;;;;;6307842;22;20402;-74
2023/08/23 06:30:55;;;;;;;12.15;2.42;;;15.80;84.20;;;;;;6308198;22;20337;-74
2023/08/23 06:33:22;;;;;;;10.77;2.35;;;15.80;83.90;;;;;;6308604;22;20078;-77
2023/08/23 06:35:50;;;;;;;11.18;2.03;;;15.80;84.00;;;;;;6307775;22;20030;-74
2023/08/23 06:38:17;;;;;;;11.07;2.15;;;15.90;83.10;;;;;;6306132;22;20091;-74
2023/08/23 06:40:45;;;;;;;12.63;2.00;;;15.80;81.40;;;;;;6307474;22;20007;-74
2023/08/23 06:43:19;;;;;;;10.48;2.03;;;15.90;80.00;;;;;;6307562;22;20070;-74
2023/08/23 06:45:46;;;;;;;10.20;2.05;;;15.90;79.10;;;;;;6280759;22;19999;-74
2023/08/23 06:48:13;;;;;;;12.05;2.22;;;16.00;79.40;;;;;;6307783;22;20418;-74
2023/08/23 06:50:41;;;;;;;12.60;2.00;;;16.00;79.00;;;;;;6307343;22;20014;-74
2023/08/23 06:53:08;;;;;;;10.30;2.28;;;16.00;78.70;;;;;;6280229;22;20010;-74
2023/08/23 06:55:42;;;;;;;8.68;1.65;;;16.00;78.40;;;;;;6277517;22;20448;-75
2023/08/23 06:58:10;;;;;;;8.25;1.92;;;16.00;78.60;;;;;;6276783;22;20312;-75
2023/08/23 07:00:37;;;;;;;12.30;1.92;;;16.00;78.60;;;;;;6302914;22;20007;-74
2023/08/23 07:03:04;;;;;;;10.40;2.15;;;16.00;78.20;;;;;;6303299;22;20006;-75
2023/08/23 07:05:34;;;;;;;8.20;1.80;;;16.00;78.30;;;;;;6276987;22;20039;-74
2023/08/23 07:08:02;;;;;;;7.53;2.00;;;16.00;78.20;;;;;;6277188;22;20136;-73
2023/08/23 07:10:30;;;;;;;6.15;1.70;;;16.00;78.10;;;;;;6303842;22;20074;-73
2023/08/23 07:12:57;;;;;;;10.32;2.38;;;16.00;78.30;;;;;;6304165;22;20043;-73
2023/08/23 07:15:25;;;;;;;9.90;1.60;;;16.00;77.20;;;;;;6271905;22;20018;-76
2023/08/23 07:17:52;;;;;;;10.10;2.63;;;16.00;77.40;;;;;;6274088;22;20008;-76
2023/08/23 07:20:19;;;;;;;14.85;2.35;;;16.00;77.00;;;;;;6303715;22;20433;-73
2023/08/23 07:22:47;;;;;;;13.65;1.98;;;16.00;77.80;;;;;;6303873;22;20456;-73
2023/08/23 07:25:14;;;;;;;11.52;1.60;;;16.00;77.90;;;;;;6302876;22;20018;-73
2023/08/23 07:27:41;;;;;;;8.95;2.20;;;16.00;77.60;;;;;;6276642;22;19999;-73
2023/08/23 07:30:09;;;;;;;11.35;2.15;;;16.00;77.10;;;;;;6274908;22;20003;-72
2023/08/23 07:32:36;;;;;;;7.53;1.75;;;16.00;77.00;;;;;;6303663;22;20011;-72
2023/08/23 07:35:03;;;;;;;7.28;1.73;;;16.00;76.70;;;;;;6276953;22;20038;-73
2023/08/23 07:37:31;;;;;;;8.02;1.67;;;16.00;75.80;;;;;;6303419;22;20112;-73
2023/08/23 07:39:58;;;;;;;5.55;1.65;;;16.00;75.70;;;;;;6302869;22;20012;-74
2023/08/23 07:42:27;;;;;;;8.35;1.92;;;16.00;75.80;;;;;;6250520;22;20007;-73
2023/08/23 07:44:54;;;;;;;12.27;2.20;;;16.00;76.50;;;;;;6303188;22;19999;-74
2023/08/23 07:47:21;;;;;;;11.52;2.15;;;16.00;76.50;;;;;;6303745;22;20046;-74
2023/08/23 07:49:49;;;;;;;8.65;2.22;;;16.00;76.70;;;;;;6276551;22;20500;-73
2023/08/23 07:52:16;;;;;;;9.32;1.92;;;16.00;77.40;;;;;;6274649;22;20011;-74
2023/08/23 07:54:43;;;;;;;15.10;2.35;;;16.00;77.20;;;;;;6303381;22;19999;-73
2023/08/23 07:57:11;;;;;;;20.08;2.85;;;16.00;77.50;;;;;;6275448;22;20003;-73
2023/08/23 07:59:38;;;;;;;12.45;2.25;;;16.00;77.60;;;;;;6275828;22;20019;-73
2023/08/23 08:02:06;;;;;;;9.05;2.00;;;16.00;78.00;;;;;;6303724;22;20003;-73
2023/08/23 08:04:33;;;;;;;9.93;2.05;;;16.00;78.30;;;;;;6304744;22;20353;-73
2023/08/23 08:07:01;;;;;;;8.23;2.45;;;16.00;78.10;;;;;;6303270;22;20030;-74
2023/08/23 08:09:28;;;;;;;9.25;2.17;;;16.00;78.10;;;;;;6303988;22;20019;-73
2023/08/23 08:11:55;;;;;;;7.50;2.00;;;16.10;78.20;;;;;;6303655;22;20038;-74
2023/08/23 08:14:22;;;;;;;11.77;2.35;;;16.10;78.00;;;;;;6303847;22;20034;-73
2023/08/23 08:16:49;;;;;;;8.07;2.10;;;16.10;78.20;;;;;;6301239;22;20490;-73
2023/08/23 08:19:17;;;;;;;7.65;1.77;;;16.10;78.30;;;;;;6303139;22;20289;-76
2023/08/23 08:21:44;;;;;;;12.95;1.83;;;16.00;78.20;;;;;;6303467;22;20007;-72
2023/08/23 08:24:11;;;;;;;12.07;2.38;;;16.00;78.30;;;;;;6304082;22;19999;-73
2023/08/23 08:26:38;;;;;;;9.57;2.15;;;16.00;78.20;;;;;;6303505;22;19999;-74
2023/08/23 08:29:05;;;;;;;10.68;1.90;;;16.10;77.90;;;;;;6303059;22;20035;-73
2023/08/23 08:31:33;;;;;;;9.52;2.08;;;16.10;77.60;;;;;;6303583;22;20041;-72
2023/08/23 08:34:00;;;;;;;8.95;1.95;;;16.10;78.10;;;;;;6303641;22;20006;-73
2023/08/23 08:36:27;;;;;;;12.02;2.17;;;16.10;77.60;;;;;;6303233;22;20003;-74
2023/08/23 08:38:54;;;;;;;11.70;2.00;;;16.10;77.70;;;;;;6302132;22;20034;-73
2023/08/23 08:41:22;;;;;;;9.80;2.22;;;16.10;77.90;;;;;;6303307;22;20083;-75
2023/08/23 08:43:49;;;;;;;7.85;2.20;;;16.10;78.00;;;;;;6250984;22;20004;-74
2023/08/23 08:46:16;;;;;;;10.95;2.13;;;16.10;78.40;;;;;;6250745;22;20079;-74
2023/08/23 08:48:45;;;;;;;11.13;2.28;;;16.10;78.10;;;;;;6276112;22;20010;-75
2023/08/23 08:51:18;;;;;;;15.13;2.20;;;16.10;78.20;;;;;;6303318;22;20027;-74
2023/08/23 08:53:49;;;;;;;13.55;2.42;;;16.10;78.20;;;;;;6253595;22;20007;-74
2023/08/23 08:56:19;;;;;;;11.63;2.20;;;16.10;78.50;;;;;;6251282;22;20429;-73
2023/08/23 08:58:47;;;;;;;11.88;2.28;;;16.10;78.60;;;;;;6275588;22;20019;-74
2023/08/23 09:01:15;;;;;;;10.05;2.13;;;16.00;78.50;;;;;;6275577;22;20015;-74
2023/08/23 09:03:42;;;;;;;9.95;2.20;;;16.00;78.30;;;;;;6276272;22;20003;-74
2023/08/23 09:06:10;;;;;;;7.70;2.03;;;16.10;78.30;;;;;;6250507;22;20003;-75
2023/08/23 09:08:37;;;;;;;11.57;2.55;;;16.10;78.30;;;;;;6274847;22;20019;-73
2023/08/23 09:11:04;;;;;;;10.55;2.28;;;16.00;78.50;;;;;;6302249;22;19999;-72
2023/08/23 09:13:31;;;;;;;8.35;2.00;;;16.10;77.90;;;;;;6303268;22;19999;-74
2023/08/23 09:15:59;;;;;;;8.13;2.13;;;16.00;78.00;;;;;;6300383;22;20007;-73
2023/08/23 09:18:26;;;;;;;14.15;2.38;;;16.00;78.00;;;;;;6275379;22;20003;-72
2023/08/23 09:20:53;;;;;;;10.73;2.03;;;16.00;77.60;;;;;;6300891;22;20003;-73
2023/08/23 09:23:21;;;;;;;13.55;2.20;;;16.00;77.90;;;;;;6303250;22;20027;-73
2023/08/23 09:25:48;;;;;;;11.55;2.35;;;16.00;77.60;;;;;;6303503;22;20014;-73
2023/08/23 09:28:15;;;;;;;8.98;2.10;;;16.00;77.60;;;;;;6275910;22;19999;-73
2023/08/23 09:30:48;;;;;;;10.07;2.55;;;16.00;77.70;;;;;;6275084;22;20014;-73
2023/08/23 09:33:16;;;;;;;9.93;2.40;;;16.10;77.50;;;;;;6301366;22;20003;-74
2023/08/23 09:35:49;;;;;;;13.43;2.45;;;16.00;77.40;;;;;;6301503;22;20011;-74
2023/08/23 09:38:20;;;;;;;15.40;3.22;;;16.00;77.00;;;;;;6276109;22;20368;-74
2023/08/23 09:40:48;;;;;;;13.20;2.30;;;16.00;77.20;;;;;;6302476;22;20010;-78
2023/08/23 09:43:18;;;;;;;12.07;2.80;;;16.00;77.20;;;;;;6275656;22;20023;-76
2023/08/23 09:45:46;;;;;;;12.63;2.45;;;16.00;76.80;;;;;;6275544;22;20311;-76
2023/08/23 09:48:13;;;;;;;6.95;1.95;;;16.10;76.70;;;;;;6302212;22;20073;-77
2023/08/23 09:50:40;;;;;;;13.25;2.25;;;16.10;76.70;;;;;;6274411;22;20065;-77
2023/08/23 09:53:22;;;;;;;7.32;2.05;;;16.00;76.80;;;;;;6275596;22;20377;-77
2023/08/23 09:55:50;;;;;;;11.80;2.47;;;16.10;76.50;;;;;;6300976;22;19999;-78
2023/08/23 09:58:17;;;;;;;8.00;2.20;;;16.00;76.50;;;;;;6301220;22;20027;-77
2023/08/23 10:00:49;;;;;;;12.70;2.15;;;16.00;76.20;;;;;;6275181;22;20003;-80
2023/08/23 10:03:17;;;;;;;10.80;2.10;;;16.00;76.00;;;;;;6300452;22;20434;-78
2023/08/23 10:05:44;;;;;;;10.38;2.13;;;16.10;76.30;;;;;;6302423;22;19999;-78
2023/08/23 10:08:11;;;;;;;10.48;2.33;;;16.10;76.50;;;;;;6275844;22;20052;-76
2023/08/23 10:10:39;;;;;;;11.75;2.65;;;16.00;76.30;;;;;;6275214;22;20004;-73
2023/08/23 10:13:06;;;;;;;10.07;2.72;;;16.00;76.30;;;;;;6275978;22;20034;-74
2023/08/23 10:15:37;;;;;;;10.38;2.33;;;16.00;76.50;;;;;;6300337;22;20008;-74
2023/08/23 10:18:07;;;;;;;8.55;1.55;;;16.10;76.20;;;;;;6249846;22;20014;-74
2023/08/23 10:20:34;;;;;;;13.05;2.55;;;16.10;76.30;;;;;;6249996;22;20030;-73
2023/08/23 10:23:03;;;;;;;9.15;2.38;;;16.10;76.50;;;;;;6302069;22;20006;-73
2023/08/23 10:25:33;;;;;;;12.32;2.58;;;16.10;76.30;;;;;;6249369;22;20014;-74
2023/08/23 10:28:00;;;;;;;10.95;2.30;;;16.00;76.20;;;;;;6250120;22;20459;-74
2023/08/23 10:30:28;;;;;;;17.35;2.65;;;16.00;76.20;;;;;;6275408;22;20074;-76
2023/08/23 10:33:06;;;;;;;9.75;2.05;;;16.00;76.40;;;;;;6274761;22;20078;-74
2023/08/23 10:35:34;;;;;;;11.07;2.13;;;16.00;76.60;;;;;;6276084;22;20457;-74
2023/08/23 10:38:02;;;;;;;10.68;2.17;;;15.90;76.80;;;;;;6250702;22;20003;-75
2023/08/23 10:40:30;;;;;;;5.88;1.83;;;15.90;76.50;;;;;;6301546;22;20090;-75
2023/08/23 10:42:57;;;;;;;7.25;1.88;;;15.90;76.60;;;;;;6301591;22;20057;-74
2023/08/23 10:45:26;;;;;;;9.55;2.20;;;15.90;76.90;;;;;;6301617;22;20073;-74
2023/08/23 10:47:53;;;;;;;12.85;2.58;;;15.90;76.80;;;;;;6302419;22;20026;-73
2023/08/23 10:50:20;;;;;;;10.10;2.70;;;15.80;77.00;;;;;;6301447;22;20009;-74
2023/08/23 10:52:51;;;;;;;9.57;2.53;;;15.80;76.80;;;;;;6275690;22;20020;-76
2023/08/23 10:55:18;;;;;;;11.07;2.90;;;15.80;76.60;;;;;;6300680;22;20023;-75
2023/08/23 10:57:45;;;;;;;10.82;2.72;;;15.90;76.60;;;;;;6275258;22;20003;-73
2023/08/23 11:00:13;;;;;;;10.38;2.00;;;15.80;76.90;;;;;;6303350;22;20033;-72
2023/08/23 11:02:41;;;;;;;11.60;2.88;;;15.80;76.90;;;;;;6304435;22;20003;-74
2023/08/23 11:05:09;;;;;;;14.15;2.33;;;15.80;77.20;;;;;;6277455;22;20011;-79
2023/08/23 11:07:36;;;;;;;10.23;2.20;;;15.70;77.30;;;;;;6277853;22;20011;-75
2023/08/23 11:10:03;;;;;;;11.07;2.28;;;15.70;77.20;;;;;;6251209;22;20011;-75
2023/08/23 11:12:30;;;;;;;12.98;2.38;;;15.70;77.30;;;;;;6303665;22;20007;-76
2023/08/23 11:14:58;;;;;;;11.55;2.47;;;15.70;77.30;;;;;;6301531;22;20410;-76
2023/08/23 11:17:25;;;;;;;4.90;2.30;;;15.70;77.30;;;;;;6304226;22;20008;-76
2023/08/23 11:19:52;;;;;;;7.30;2.28;;;15.70;77.10;;;;;;6251244;22;20090;-74
2023/08/23 11:22:19;;;;;;;11.30;2.50;;;15.70;77.30;;;;;;6303721;22;20004;-76
2023/08/23 11:24:47;;;;;;;8.07;2.30;;;15.70;77.20;;;;;;6304271;22;20074;-75
2023/08/23 11:27:14;;;;;;;11.00;2.92;;;15.70;77.50;;;;;;6252273;22;20030;-75
2023/08/23 11:29:45;;;;;;;12.70;2.50;;;15.70;77.40;;;;;;6304041;22;20138;-75
2023/08/23 11:32:15;;;;;;;10.30;2.22;;;15.70;77.50;;;;;;6303523;22;20430;-75
2023/08/23 11:34:42;;;;;;;10.52;2.40;;;15.70;77.80;;;;;;6276626;22;20015;-75
2023/08/23 11:37:12;;;;;;;11.10;2.45;;;15.70;77.40;;;;;;6276961;22;20078;-75
2023/08/23 11:39:39;;;;;;;6.80;1.80;;;15.70;77.40;;;;;;6277193;22;20334;-75
2023/08/23 11:42:07;;;;;;;8.20;2.17;;;15.70;77.80;;;;;;6303746;22;20013;-76
2023/08/23 11:44:34;;;;;;;13.05;2.88;;;15.70;77.80;;;;;;6303961;22;20011;-76
